sensor_id;sensor_type;location;lat;lon;timestamp;temperature;humidity
13328;DHT22;6733;51.044;3.746;2024-02-04T00:00:19;11.70;90.60
13328;DHT22;6733;51.044;3.746;2024-02-04T00:02:45;11.70;90.60
13328;DHT22;6733;51.044;3.746;2024-02-04T00:05:11;11.70;90.70
13328;DHT22;6733;51.044;3.746;2024-02-04T00:07:38;11.80;90.60
13328;DHT22;6733;51.044;3.746;2024-02-04T00:10:04;11.80;90.50
13328;DHT22;6733;51.044;3.746;2024-02-04T00:12:30;11.80;90.50
13328;DHT22;6733;51.044;3.746;2024-02-04T00:14:56;11.80;90.60
13328;DHT22;6733;51.044;3.746;2024-02-04T00:17:22;11.80;90.60
13328;DHT22;6733;51.044;3.746;2024-02-04T00:19:49;11.90;90.40
13328;DHT22;6733;51.044;3.746;2024-02-04T00:22:15;11.90;90.40
13328;DHT22;6733;51.044;3.746;2024-02-04T00:24:44;11.90;90.50
13328;DHT22;6733;51.044;3.746;2024-02-04T00:27:10;11.90;90.70
13328;DHT22;6733;51.044;3.746;2024-02-04T00:29:36;11.90;90.80
13328;DHT22;6733;51.044;3.746;2024-02-04T00:32:03;11.90;90.70
13328;DHT22;6733;51.044;3.746;2024-02-04T00:34:29;11.90;90.70
13328;DHT22;6733;51.044;3.746;2024-02-04T00:36:55;11.90;91.20
13328;DHT22;6733;51.044;3.746;2024-02-04T00:39:21;11.90;91.40
13328;DHT22;6733;51.044;3.746;2024-02-04T00:41:47;11.80;91.70
13328;DHT22;6733;51.044;3.746;2024-02-04T00:44:13;11.80;92.00
13328;DHT22;6733;51.044;3.746;2024-02-04T00:46:39;11.80;92.20
13328;DHT22;6733;51.044;3.746;2024-02-04T00:49:05;11.90;92.10
13328;DHT22;6733;51.044;3.746;2024-02-04T00:51:32;11.90;91.90
13328;DHT22;6733;51.044;3.746;2024-02-04T00:53:58;11.90;91.80
13328;DHT22;6733;51.044;3.746;2024-02-04T00:56:25;11.90;91.80
13328;DHT22;6733;51.044;3.746;2024-02-04T00:58:51;11.90;91.70
13328;DHT22;6733;51.044;3.746;2024-02-04T01:01:17;11.90;91.60
13328;DHT22;6733;51.044;3.746;2024-02-04T01:03:45;11.90;91.60
13328;DHT22;6733;51.044;3.746;2024-02-04T01:06:12;11.80;91.50
13328;DHT22;6733;51.044;3.746;2024-02-04T01:08:38;11.80;91.60
13328;DHT22;6733;51.044;3.746;2024-02-04T01:11:07;11.80;91.40
13328;DHT22;6733;51.044;3.746;2024-02-04T01:13:33;11.80;91.60
13328;DHT22;6733;51.044;3.746;2024-02-04T01:15:59;11.80;91.60
13328;DHT22;6733;51.044;3.746;2024-02-04T01:18:25;11.80;91.60
13328;DHT22;6733;51.044;3.746;2024-02-04T01:20:51;11.80;91.40
13328;DHT22;6733;51.044;3.746;2024-02-04T01:23:18;11.70;91.60
13328;DHT22;6733;51.044;3.746;2024-02-04T01:25:44;11.80;91.60
13328;DHT22;6733;51.044;3.746;2024-02-04T01:28:10;11.90;91.50
13328;DHT22;6733;51.044;3.746;2024-02-04T01:30:36;11.90;91.30
13328;DHT22;6733;51.044;3.746;2024-02-04T01:33:03;11.90;90.90
13328;DHT22;6733;51.044;3.746;2024-02-04T01:35:30;11.90;90.90
13328;DHT22;6733;51.044;3.746;2024-02-04T01:37:56;11.90;90.70
13328;DHT22;6733;51.044;3.746;2024-02-04T01:40:22;11.90;90.70
13328;DHT22;6733;51.044;3.746;2024-02-04T01:42:48;11.90;90.70
13328;DHT22;6733;51.044;3.746;2024-02-04T01:45:14;11.90;90.90
13328;DHT22;6733;51.044;3.746;2024-02-04T01:47:41;11.80;90.50
13328;DHT22;6733;51.044;3.746;2024-02-04T01:50:07;11.80;90.80
13328;DHT22;6733;51.044;3.746;2024-02-04T01:52:36;11.80;90.70
13328;DHT22;6733;51.044;3.746;2024-02-04T01:55:05;11.80;90.70
13328;DHT22;6733;51.044;3.746;2024-02-04T01:57:32;11.80;90.80
13328;DHT22;6733;51.044;3.746;2024-02-04T02:00:01;11.70;90.90
13328;DHT22;6733;51.044;3.746;2024-02-04T02:02:28;11.80;90.90
13328;DHT22;6733;51.044;3.746;2024-02-04T02:04:54;11.80;90.70
13328;DHT22;6733;51.044;3.746;2024-02-04T02:07:21;11.80;90.60
13328;DHT22;6733;51.044;3.746;2024-02-04T02:09:47;11.80;90.70
13328;DHT22;6733;51.044;3.746;2024-02-04T02:12:18;11.90;90.40
13328;DHT22;6733;51.044;3.746;2024-02-04T02:14:52;11.90;90.30
13328;DHT22;6733;51.044;3.746;2024-02-04T02:17:27;11.90;90.00
13328;DHT22;6733;51.044;3.746;2024-02-04T02:20:02;11.80;90.10
13328;DHT22;6733;51.044;3.746;2024-02-04T02:22:49;11.80;90.10
13328;DHT22;6733;51.044;3.746;2024-02-04T02:25:17;11.80;90.20
13328;DHT22;6733;51.044;3.746;2024-02-04T02:27:50;11.80;90.20
13328;DHT22;6733;51.044;3.746;2024-02-04T02:30:17;11.80;90.20
13328;DHT22;6733;51.044;3.746;2024-02-04T02:32:48;11.80;90.20
13328;DHT22;6733;51.044;3.746;2024-02-04T02:35:18;11.80;90.40
13328;DHT22;6733;51.044;3.746;2024-02-04T02:38:37;11.70;90.60
13328;DHT22;6733;51.044;3.746;2024-02-04T02:41:32;11.70;90.70
13328;DHT22;6733;51.044;3.746;2024-02-04T02:44:28;11.70;90.90
13328;DHT22;6733;51.044;3.746;2024-02-04T02:59:38;11.80;91.40
13328;DHT22;6733;51.044;3.746;2024-02-04T03:02:05;11.80;91.60
13328;DHT22;6733;51.044;3.746;2024-02-04T03:04:31;11.80;91.70
13328;DHT22;6733;51.044;3.746;2024-02-04T03:06:57;11.70;91.90
13328;DHT22;6733;51.044;3.746;2024-02-04T03:09:23;11.70;92.10
13328;DHT22;6733;51.044;3.746;2024-02-04T03:11:49;11.70;92.20
13328;DHT22;6733;51.044;3.746;2024-02-04T03:14:16;11.70;92.20
13328;DHT22;6733;51.044;3.746;2024-02-04T03:16:46;11.70;91.90
13328;DHT22;6733;51.044;3.746;2024-02-04T03:19:12;11.80;91.80
13328;DHT22;6733;51.044;3.746;2024-02-04T03:21:38;11.70;91.70
13328;DHT22;6733;51.044;3.746;2024-02-04T03:24:04;11.60;92.00
13328;DHT22;6733;51.044;3.746;2024-02-04T03:26:31;11.60;92.10
13328;DHT22;6733;51.044;3.746;2024-02-04T03:28:57;11.70;92.10
13328;DHT22;6733;51.044;3.746;2024-02-04T03:31:23;11.70;91.90
13328;DHT22;6733;51.044;3.746;2024-02-04T03:33:50;11.70;91.70
13328;DHT22;6733;51.044;3.746;2024-02-04T03:36:19;11.70;91.60
13328;DHT22;6733;51.044;3.746;2024-02-04T03:38:45;11.70;91.60
13328;DHT22;6733;51.044;3.746;2024-02-04T03:41:11;11.60;91.50
13328;DHT22;6733;51.044;3.746;2024-02-04T03:43:38;11.60;91.80
13328;DHT22;6733;51.044;3.746;2024-02-04T03:46:04;11.60;92.00
13328;DHT22;6733;51.044;3.746;2024-02-04T03:48:30;11.60;91.80
13328;DHT22;6733;51.044;3.746;2024-02-04T03:50:56;11.70;91.70
13328;DHT22;6733;51.044;3.746;2024-02-04T03:53:22;11.70;91.50
13328;DHT22;6733;51.044;3.746;2024-02-04T03:55:49;11.70;91.50
13328;DHT22;6733;51.044;3.746;2024-02-04T03:58:15;11.70;91.40
13328;DHT22;6733;51.044;3.746;2024-02-04T04:00:41;11.70;90.90
13328;DHT22;6733;51.044;3.746;2024-02-04T04:03:07;11.80;90.70
13328;DHT22;6733;51.044;3.746;2024-02-04T04:05:33;11.70;90.70
13328;DHT22;6733;51.044;3.746;2024-02-04T04:08:00;11.70;90.60
13328;DHT22;6733;51.044;3.746;2024-02-04T04:10:26;11.70;90.60
13328;DHT22;6733;51.044;3.746;2024-02-04T04:12:52;11.70;90.50
13328;DHT22;6733;51.044;3.746;2024-02-04T04:15:18;11.70;90.50
13328;DHT22;6733;51.044;3.746;2024-02-04T04:17:44;11.70;90.40
13328;DHT22;6733;51.044;3.746;2024-02-04T04:20:11;11.70;90.40
13328;DHT22;6733;51.044;3.746;2024-02-04T04:22:39;11.60;90.30
13328;DHT22;6733;51.044;3.746;2024-02-04T04:25:07;11.60;90.40
13328;DHT22;6733;51.044;3.746;2024-02-04T04:27:33;11.60;90.20
13328;DHT22;6733;51.044;3.746;2024-02-04T04:29:59;11.70;90.10
13328;DHT22;6733;51.044;3.746;2024-02-04T04:32:25;11.70;89.90
13328;DHT22;6733;51.044;3.746;2024-02-04T04:34:51;11.70;90.00
13328;DHT22;6733;51.044;3.746;2024-02-04T04:37:18;11.70;89.80
13328;DHT22;6733;51.044;3.746;2024-02-04T04:39:44;11.70;89.70
13328;DHT22;6733;51.044;3.746;2024-02-04T04:42:10;11.70;89.80
13328;DHT22;6733;51.044;3.746;2024-02-04T04:44:36;11.60;90.00
13328;DHT22;6733;51.044;3.746;2024-02-04T04:47:03;11.50;90.30
13328;DHT22;6733;51.044;3.746;2024-02-04T04:49:29;11.40;90.50
13328;DHT22;6733;51.044;3.746;2024-02-04T04:51:55;11.40;90.70
13328;DHT22;6733;51.044;3.746;2024-02-04T04:54:21;11.40;90.80
13328;DHT22;6733;51.044;3.746;2024-02-04T04:56:48;11.50;90.60
13328;DHT22;6733;51.044;3.746;2024-02-04T04:59:15;11.60;90.40
13328;DHT22;6733;51.044;3.746;2024-02-04T05:01:50;11.60;90.10
13328;DHT22;6733;51.044;3.746;2024-02-04T05:04:17;11.50;90.10
13328;DHT22;6733;51.044;3.746;2024-02-04T05:06:49;11.60;90.20
13328;DHT22;6733;51.044;3.746;2024-02-04T05:09:15;11.60;90.10
13328;DHT22;6733;51.044;3.746;2024-02-04T05:11:42;11.50;90.20
13328;DHT22;6733;51.044;3.746;2024-02-04T05:14:08;11.60;90.10
13328;DHT22;6733;51.044;3.746;2024-02-04T05:16:35;11.60;89.90
13328;DHT22;6733;51.044;3.746;2024-02-04T05:19:02;11.60;89.90
13328;DHT22;6733;51.044;3.746;2024-02-04T05:21:28;11.60;89.90
13328;DHT22;6733;51.044;3.746;2024-02-04T05:23:55;11.60;90.10
13328;DHT22;6733;51.044;3.746;2024-02-04T05:26:21;11.60;90.10
13328;DHT22;6733;51.044;3.746;2024-02-04T05:28:47;11.60;90.20
13328;DHT22;6733;51.044;3.746;2024-02-04T05:31:13;11.60;90.40
13328;DHT22;6733;51.044;3.746;2024-02-04T05:33:39;11.50;90.90
13328;DHT22;6733;51.044;3.746;2024-02-04T05:36:06;11.50;91.20
13328;DHT22;6733;51.044;3.746;2024-02-04T05:38:32;11.50;91.60
13328;DHT22;6733;51.044;3.746;2024-02-04T05:40:58;11.50;91.90
13328;DHT22;6733;51.044;3.746;2024-02-04T05:43:24;11.50;92.20
13328;DHT22;6733;51.044;3.746;2024-02-04T05:45:50;11.40;92.50
13328;DHT22;6733;51.044;3.746;2024-02-04T05:48:17;11.40;92.80
13328;DHT22;6733;51.044;3.746;2024-02-04T05:50:43;11.40;92.80
13328;DHT22;6733;51.044;3.746;2024-02-04T05:53:09;11.50;93.00
13328;DHT22;6733;51.044;3.746;2024-02-04T05:55:35;11.50;93.00
13328;DHT22;6733;51.044;3.746;2024-02-04T05:58:02;11.50;92.90
13328;DHT22;6733;51.044;3.746;2024-02-04T06:00:29;11.50;93.00
13328;DHT22;6733;51.044;3.746;2024-02-04T06:02:55;11.50;93.00
13328;DHT22;6733;51.044;3.746;2024-02-04T06:05:22;11.40;93.30
13328;DHT22;6733;51.044;3.746;2024-02-04T06:07:48;11.40;93.20
13328;DHT22;6733;51.044;3.746;2024-02-04T06:10:14;11.40;93.40
13328;DHT22;6733;51.044;3.746;2024-02-04T06:12:40;11.50;93.50
13328;DHT22;6733;51.044;3.746;2024-02-04T06:15:14;11.60;93.20
13328;DHT22;6733;51.044;3.746;2024-02-04T06:17:41;11.60;92.90
13328;DHT22;6733;51.044;3.746;2024-02-04T06:20:08;11.60;92.80
13328;DHT22;6733;51.044;3.746;2024-02-04T06:22:35;11.70;92.60
13328;DHT22;6733;51.044;3.746;2024-02-04T06:25:02;11.70;92.20
13328;DHT22;6733;51.044;3.746;2024-02-04T06:27:30;11.70;91.80
13328;DHT22;6733;51.044;3.746;2024-02-04T06:29:56;11.70;91.40
13328;DHT22;6733;51.044;3.746;2024-02-04T06:32:23;11.70;91.40
13328;DHT22;6733;51.044;3.746;2024-02-04T06:34:51;11.60;91.10
13328;DHT22;6733;51.044;3.746;2024-02-04T06:37:17;11.60;91.00
13328;DHT22;6733;51.044;3.746;2024-02-04T06:39:43;11.60;90.90
13328;DHT22;6733;51.044;3.746;2024-02-04T06:42:11;11.60;90.50
13328;DHT22;6733;51.044;3.746;2024-02-04T06:44:37;11.60;90.60
13328;DHT22;6733;51.044;3.746;2024-02-04T06:47:03;11.60;90.60
13328;DHT22;6733;51.044;3.746;2024-02-04T06:49:29;11.60;90.40
13328;DHT22;6733;51.044;3.746;2024-02-04T06:51:56;11.50;90.60
13328;DHT22;6733;51.044;3.746;2024-02-04T06:54:23;11.50;90.40
13328;DHT22;6733;51.044;3.746;2024-02-04T06:56:51;11.50;90.30
13328;DHT22;6733;51.044;3.746;2024-02-04T06:59:18;11.50;90.20
13328;DHT22;6733;51.044;3.746;2024-02-04T07:01:45;11.50;90.30
13328;DHT22;6733;51.044;3.746;2024-02-04T07:04:11;11.50;90.30
13328;DHT22;6733;51.044;3.746;2024-02-04T07:06:37;11.60;90.00
13328;DHT22;6733;51.044;3.746;2024-02-04T07:09:04;11.50;89.90
13328;DHT22;6733;51.044;3.746;2024-02-04T07:11:30;11.60;89.90
13328;DHT22;6733;51.044;3.746;2024-02-04T07:13:56;11.60;89.60
13328;DHT22;6733;51.044;3.746;2024-02-04T07:16:26;11.60;89.70
13328;DHT22;6733;51.044;3.746;2024-02-04T07:18:54;11.60;89.60
13328;DHT22;6733;51.044;3.746;2024-02-04T07:21:20;11.60;89.50
13328;DHT22;6733;51.044;3.746;2024-02-04T07:23:46;11.60;89.40
13328;DHT22;6733;51.044;3.746;2024-02-04T07:26:12;11.70;89.30
13328;DHT22;6733;51.044;3.746;2024-02-04T07:28:39;11.60;89.00
13328;DHT22;6733;51.044;3.746;2024-02-04T07:31:05;11.60;88.90
13328;DHT22;6733;51.044;3.746;2024-02-04T07:33:31;11.60;88.90
13328;DHT22;6733;51.044;3.746;2024-02-04T07:35:57;11.50;89.00
13328;DHT22;6733;51.044;3.746;2024-02-04T07:38:23;11.60;89.10
13328;DHT22;6733;51.044;3.746;2024-02-04T07:40:50;11.50;89.00
13328;DHT22;6733;51.044;3.746;2024-02-04T07:43:16;11.60;89.10
13328;DHT22;6733;51.044;3.746;2024-02-04T07:45:42;11.60;88.70
13328;DHT22;6733;51.044;3.746;2024-02-04T07:48:09;11.60;88.50
13328;DHT22;6733;51.044;3.746;2024-02-04T07:50:35;11.60;88.50
13328;DHT22;6733;51.044;3.746;2024-02-04T07:53:01;11.70;88.30
13328;DHT22;6733;51.044;3.746;2024-02-04T07:55:27;11.70;87.90
13328;DHT22;6733;51.044;3.746;2024-02-04T07:57:55;11.70;87.80
13328;DHT22;6733;51.044;3.746;2024-02-04T08:00:21;11.70;87.60
13328;DHT22;6733;51.044;3.746;2024-02-04T08:02:47;11.70;87.50
13328;DHT22;6733;51.044;3.746;2024-02-04T08:05:14;11.70;87.40
13328;DHT22;6733;51.044;3.746;2024-02-04T08:07:40;11.70;87.20
13328;DHT22;6733;51.044;3.746;2024-02-04T08:10:07;11.70;87.40
13328;DHT22;6733;51.044;3.746;2024-02-04T08:12:33;11.70;87.30
13328;DHT22;6733;51.044;3.746;2024-02-04T08:15:00;11.80;87.30
13328;DHT22;6733;51.044;3.746;2024-02-04T08:17:27;11.80;87.20
13328;DHT22;6733;51.044;3.746;2024-02-04T08:19:55;11.80;87.10
13328;DHT22;6733;51.044;3.746;2024-02-04T08:22:21;11.70;87.00
13328;DHT22;6733;51.044;3.746;2024-02-04T08:24:47;11.80;87.20
13328;DHT22;6733;51.044;3.746;2024-02-04T08:27:13;11.80;87.20
13328;DHT22;6733;51.044;3.746;2024-02-04T08:29:42;11.80;87.10
13328;DHT22;6733;51.044;3.746;2024-02-04T08:32:09;11.80;87.10
13328;DHT22;6733;51.044;3.746;2024-02-04T08:34:35;11.80;87.20
13328;DHT22;6733;51.044;3.746;2024-02-04T08:37:01;11.80;87.20
13328;DHT22;6733;51.044;3.746;2024-02-04T08:39:27;11.80;87.10
13328;DHT22;6733;51.044;3.746;2024-02-04T08:41:56;11.90;87.00
13328;DHT22;6733;51.044;3.746;2024-02-04T08:44:22;11.80;86.80
13328;DHT22;6733;51.044;3.746;2024-02-04T08:46:48;11.80;87.00
13328;DHT22;6733;51.044;3.746;2024-02-04T08:49:14;11.90;87.00
13328;DHT22;6733;51.044;3.746;2024-02-04T08:51:40;11.90;86.80
13328;DHT22;6733;51.044;3.746;2024-02-04T08:54:06;11.90;86.70
13328;DHT22;6733;51.044;3.746;2024-02-04T08:56:33;12.00;86.80
13328;DHT22;6733;51.044;3.746;2024-02-04T08:58:59;12.00;86.60
13328;DHT22;6733;51.044;3.746;2024-02-04T09:01:27;12.10;86.20
13328;DHT22;6733;51.044;3.746;2024-02-04T09:03:54;12.10;86.40
13328;DHT22;6733;51.044;3.746;2024-02-04T09:06:20;12.10;85.80
13328;DHT22;6733;51.044;3.746;2024-02-04T09:08:46;12.20;85.90
13328;DHT22;6733;51.044;3.746;2024-02-04T09:11:13;12.20;85.50
13328;DHT22;6733;51.044;3.746;2024-02-04T09:13:45;12.20;85.60
13328;DHT22;6733;51.044;3.746;2024-02-04T09:16:11;12.30;85.40
13328;DHT22;6733;51.044;3.746;2024-02-04T09:18:37;12.30;85.00
13328;DHT22;6733;51.044;3.746;2024-02-04T09:21:04;12.30;84.90
13328;DHT22;6733;51.044;3.746;2024-02-04T09:23:30;12.40;84.80
13328;DHT22;6733;51.044;3.746;2024-02-04T09:25:56;12.30;84.50
13328;DHT22;6733;51.044;3.746;2024-02-04T09:28:22;12.30;84.80
13328;DHT22;6733;51.044;3.746;2024-02-04T09:30:48;12.40;84.80
13328;DHT22;6733;51.044;3.746;2024-02-04T09:33:14;12.40;84.70
13328;DHT22;6733;51.044;3.746;2024-02-04T09:35:40;12.50;84.80
13328;DHT22;6733;51.044;3.746;2024-02-04T09:38:07;12.60;84.00
13328;DHT22;6733;51.044;3.746;2024-02-04T09:40:33;12.60;83.80
13328;DHT22;6733;51.044;3.746;2024-02-04T09:43:01;12.60;83.90
13328;DHT22;6733;51.044;3.746;2024-02-04T09:45:27;12.80;83.30
13328;DHT22;6733;51.044;3.746;2024-02-04T09:47:54;12.80;82.90
13328;DHT22;6733;51.044;3.746;2024-02-04T09:50:21;12.90;82.80
13328;DHT22;6733;51.044;3.746;2024-02-04T09:52:50;12.80;82.60
13328;DHT22;6733;51.044;3.746;2024-02-04T09:55:20;12.90;82.50
13328;DHT22;6733;51.044;3.746;2024-02-04T09:57:49;12.80;82.60
13328;DHT22;6733;51.044;3.746;2024-02-04T10:00:18;12.90;82.60
13328;DHT22;6733;51.044;3.746;2024-02-04T10:02:47;12.90;82.70
13328;DHT22;6733;51.044;3.746;2024-02-04T10:05:15;12.90;82.40
13328;DHT22;6733;51.044;3.746;2024-02-04T10:07:42;13.00;82.30
13328;DHT22;6733;51.044;3.746;2024-02-04T10:10:08;12.90;82.50
13328;DHT22;6733;51.044;3.746;2024-02-04T10:12:35;12.90;82.60
13328;DHT22;6733;51.044;3.746;2024-02-04T10:15:04;12.90;82.40
13328;DHT22;6733;51.044;3.746;2024-02-04T10:17:31;12.90;82.40
13328;DHT22;6733;51.044;3.746;2024-02-04T10:19:57;12.90;82.40
13328;DHT22;6733;51.044;3.746;2024-02-04T10:22:26;12.90;82.40
13328;DHT22;6733;51.044;3.746;2024-02-04T10:24:53;12.90;82.80
13328;DHT22;6733;51.044;3.746;2024-02-04T10:27:19;12.90;82.60
13328;DHT22;6733;51.044;3.746;2024-02-04T10:29:46;12.90;82.50
13328;DHT22;6733;51.044;3.746;2024-02-04T10:32:12;12.90;82.80
13328;DHT22;6733;51.044;3.746;2024-02-04T10:34:39;12.80;82.70
13328;DHT22;6733;51.044;3.746;2024-02-04T10:37:05;12.80;82.70
13328;DHT22;6733;51.044;3.746;2024-02-04T10:39:31;12.80;82.80
13328;DHT22;6733;51.044;3.746;2024-02-04T10:42:02;12.80;82.80
13328;DHT22;6733;51.044;3.746;2024-02-04T10:44:35;12.90;82.60
13328;DHT22;6733;51.044;3.746;2024-02-04T10:47:05;12.80;82.70
13328;DHT22;6733;51.044;3.746;2024-02-04T10:49:34;12.80;82.70
13328;DHT22;6733;51.044;3.746;2024-02-04T10:52:06;12.70;83.00
13328;DHT22;6733;51.044;3.746;2024-02-04T10:54:34;12.80;82.90
13328;DHT22;6733;51.044;3.746;2024-02-04T10:57:05;12.80;82.80
13328;DHT22;6733;51.044;3.746;2024-02-04T10:59:36;12.80;82.80
13328;DHT22;6733;51.044;3.746;2024-02-04T11:02:05;12.80;83.00
13328;DHT22;6733;51.044;3.746;2024-02-04T11:04:33;12.70;83.30
13328;DHT22;6733;51.044;3.746;2024-02-04T11:07:01;12.70;83.20
13328;DHT22;6733;51.044;3.746;2024-02-04T11:09:29;12.70;83.50
13328;DHT22;6733;51.044;3.746;2024-02-04T11:11:57;12.80;83.40
13328;DHT22;6733;51.044;3.746;2024-02-04T11:14:25;12.90;83.00
13328;DHT22;6733;51.044;3.746;2024-02-04T11:17:20;12.90;82.70
13328;DHT22;6733;51.044;3.746;2024-02-04T11:27:54;13.10;82.20
13328;DHT22;6733;51.044;3.746;2024-02-04T11:30:20;13.20;82.00
13328;DHT22;6733;51.044;3.746;2024-02-04T11:32:48;13.20;81.90
13328;DHT22;6733;51.044;3.746;2024-02-04T11:35:14;13.20;81.90
13328;DHT22;6733;51.044;3.746;2024-02-04T11:37:41;13.10;81.90
13328;DHT22;6733;51.044;3.746;2024-02-04T11:40:13;13.10;82.20
13328;DHT22;6733;51.044;3.746;2024-02-04T11:42:39;13.10;82.40
13328;DHT22;6733;51.044;3.746;2024-02-04T11:45:13;13.00;82.40
13328;DHT22;6733;51.044;3.746;2024-02-04T11:47:39;13.00;82.40
13328;DHT22;6733;51.044;3.746;2024-02-04T11:50:07;13.00;82.70
13328;DHT22;6733;51.044;3.746;2024-02-04T11:52:35;12.90;83.10
13328;DHT22;6733;51.044;3.746;2024-02-04T11:55:02;12.90;83.10
13328;DHT22;6733;51.044;3.746;2024-02-04T11:57:30;12.90;83.00
13328;DHT22;6733;51.044;3.746;2024-02-04T11:59:56;12.90;83.00
13328;DHT22;6733;51.044;3.746;2024-02-04T12:02:22;12.90;83.10
13328;DHT22;6733;51.044;3.746;2024-02-04T12:04:48;13.00;84.30
13328;DHT22;6733;51.044;3.746;2024-02-04T12:07:15;13.20;83.40
13328;DHT22;6733;51.044;3.746;2024-02-04T12:09:44;13.30;82.20
13328;DHT22;6733;51.044;3.746;2024-02-04T12:12:11;13.20;81.90
13328;DHT22;6733;51.044;3.746;2024-02-04T12:14:39;13.00;82.60
13328;DHT22;6733;51.044;3.746;2024-02-04T12:17:10;12.90;82.90
13328;DHT22;6733;51.044;3.746;2024-02-04T12:19:37;12.80;83.40
13328;DHT22;6733;51.044;3.746;2024-02-04T12:22:04;12.90;83.50
13328;DHT22;6733;51.044;3.746;2024-02-04T12:24:38;12.90;83.90
13328;DHT22;6733;51.044;3.746;2024-02-04T12:27:05;12.90;84.60
13328;DHT22;6733;51.044;3.746;2024-02-04T12:29:32;12.90;84.40
13328;DHT22;6733;51.044;3.746;2024-02-04T12:31:59;12.90;85.00
13328;DHT22;6733;51.044;3.746;2024-02-04T12:34:25;12.90;84.90
13328;DHT22;6733;51.044;3.746;2024-02-04T12:36:59;12.80;85.00
13328;DHT22;6733;51.044;3.746;2024-02-04T12:39:26;12.70;85.60
13328;DHT22;6733;51.044;3.746;2024-02-04T12:41:52;12.70;86.00
13328;DHT22;6733;51.044;3.746;2024-02-04T12:44:19;12.70;86.10
13328;DHT22;6733;51.044;3.746;2024-02-04T12:46:49;12.80;85.90
13328;DHT22;6733;51.044;3.746;2024-02-04T12:49:20;12.70;86.20
13328;DHT22;6733;51.044;3.746;2024-02-04T12:51:49;12.80;86.00
13328;DHT22;6733;51.044;3.746;2024-02-04T12:54:18;12.70;86.30
13328;DHT22;6733;51.044;3.746;2024-02-04T12:56:53;12.70;86.40
13328;DHT22;6733;51.044;3.746;2024-02-04T12:59:33;12.50;86.60
13328;DHT22;6733;51.044;3.746;2024-02-04T13:02:04;12.50;87.20
13328;DHT22;6733;51.044;3.746;2024-02-04T13:04:37;12.50;87.20
13328;DHT22;6733;51.044;3.746;2024-02-04T13:07:07;12.40;86.90
13328;DHT22;6733;51.044;3.746;2024-02-04T13:09:38;12.40;87.00
13328;DHT22;6733;51.044;3.746;2024-02-04T13:12:05;12.40;87.10
13328;DHT22;6733;51.044;3.746;2024-02-04T13:14:33;12.50;86.80
13328;DHT22;6733;51.044;3.746;2024-02-04T13:16:59;12.40;86.60
13328;DHT22;6733;51.044;3.746;2024-02-04T13:19:32;12.40;86.40
13328;DHT22;6733;51.044;3.746;2024-02-04T13:21:59;12.40;86.50
13328;DHT22;6733;51.044;3.746;2024-02-04T13:24:25;12.40;86.10
13328;DHT22;6733;51.044;3.746;2024-02-04T13:26:51;12.40;85.90
13328;DHT22;6733;51.044;3.746;2024-02-04T13:29:17;12.40;85.90
13328;DHT22;6733;51.044;3.746;2024-02-04T13:31:44;12.40;86.30
13328;DHT22;6733;51.044;3.746;2024-02-04T13:34:10;12.40;85.70
13328;DHT22;6733;51.044;3.746;2024-02-04T13:36:36;12.40;85.80
13328;DHT22;6733;51.044;3.746;2024-02-04T13:39:02;12.40;85.60
13328;DHT22;6733;51.044;3.746;2024-02-04T13:41:28;12.50;85.50
13328;DHT22;6733;51.044;3.746;2024-02-04T13:43:55;12.60;85.20
13328;DHT22;6733;51.044;3.746;2024-02-04T13:46:21;12.60;84.80
13328;DHT22;6733;51.044;3.746;2024-02-04T13:48:47;12.60;85.00
13328;DHT22;6733;51.044;3.746;2024-02-04T13:51:13;12.60;85.10
13328;DHT22;6733;51.044;3.746;2024-02-04T13:53:39;12.50;85.00
13328;DHT22;6733;51.044;3.746;2024-02-04T13:56:06;12.60;85.00
13328;DHT22;6733;51.044;3.746;2024-02-04T13:58:32;12.50;85.10
13328;DHT22;6733;51.044;3.746;2024-02-04T14:00:58;12.50;84.80
13328;DHT22;6733;51.044;3.746;2024-02-04T14:03:25;12.50;84.80
13328;DHT22;6733;51.044;3.746;2024-02-04T14:05:52;12.80;84.80
13328;DHT22;6733;51.044;3.746;2024-02-04T14:08:18;12.80;82.80
13328;DHT22;6733;51.044;3.746;2024-02-04T14:10:44;12.80;82.30
13328;DHT22;6733;51.044;3.746;2024-02-04T14:13:10;12.80;82.40
13328;DHT22;6733;51.044;3.746;2024-02-04T14:15:37;12.80;82.20
13328;DHT22;6733;51.044;3.746;2024-02-04T14:18:04;12.80;81.50
13328;DHT22;6733;51.044;3.746;2024-02-04T14:20:31;12.80;81.30
13328;DHT22;6733;51.044;3.746;2024-02-04T14:22:57;12.80;81.20
13328;DHT22;6733;51.044;3.746;2024-02-04T14:25:24;12.90;81.20
13328;DHT22;6733;51.044;3.746;2024-02-04T14:27:50;12.90;81.20
13328;DHT22;6733;51.044;3.746;2024-02-04T14:30:16;12.90;81.10
13328;DHT22;6733;51.044;3.746;2024-02-04T14:32:43;12.90;81.10
13328;DHT22;6733;51.044;3.746;2024-02-04T14:35:09;12.90;81.50
13328;DHT22;6733;51.044;3.746;2024-02-04T14:37:36;12.80;81.60
13328;DHT22;6733;51.044;3.746;2024-02-04T14:40:03;12.80;81.60
13328;DHT22;6733;51.044;3.746;2024-02-04T14:42:30;12.80;81.70
13328;DHT22;6733;51.044;3.746;2024-02-04T14:44:56;12.70;81.90
13328;DHT22;6733;51.044;3.746;2024-02-04T14:47:22;12.60;82.10
13328;DHT22;6733;51.044;3.746;2024-02-04T14:49:48;12.60;82.10
13328;DHT22;6733;51.044;3.746;2024-02-04T14:52:15;12.60;82.20
13328;DHT22;6733;51.044;3.746;2024-02-04T14:54:44;12.50;82.30
13328;DHT22;6733;51.044;3.746;2024-02-04T14:57:10;12.50;82.60
13328;DHT22;6733;51.044;3.746;2024-02-04T14:59:36;12.50;82.70
13328;DHT22;6733;51.044;3.746;2024-02-04T15:02:08;12.50;83.00
13328;DHT22;6733;51.044;3.746;2024-02-04T15:04:35;12.50;82.90
13328;DHT22;6733;51.044;3.746;2024-02-04T15:07:01;12.40;83.10
13328;DHT22;6733;51.044;3.746;2024-02-04T15:09:34;12.50;83.10
13328;DHT22;6733;51.044;3.746;2024-02-04T15:12:00;12.50;83.10
13328;DHT22;6733;51.044;3.746;2024-02-04T15:14:27;12.60;83.00
13328;DHT22;6733;51.044;3.746;2024-02-04T15:16:53;12.60;82.90
13328;DHT22;6733;51.044;3.746;2024-02-04T15:19:26;12.60;82.60
13328;DHT22;6733;51.044;3.746;2024-02-04T15:21:53;12.60;82.20
13328;DHT22;6733;51.044;3.746;2024-02-04T15:24:19;12.60;82.30
13328;DHT22;6733;51.044;3.746;2024-02-04T15:26:48;12.60;82.40
13328;DHT22;6733;51.044;3.746;2024-02-04T15:29:15;12.60;82.30
13328;DHT22;6733;51.044;3.746;2024-02-04T15:31:44;12.60;82.50
13328;DHT22;6733;51.044;3.746;2024-02-04T15:34:12;12.60;82.40
13328;DHT22;6733;51.044;3.746;2024-02-04T15:36:39;12.60;82.70
13328;DHT22;6733;51.044;3.746;2024-02-04T15:39:05;12.60;82.60
13328;DHT22;6733;51.044;3.746;2024-02-04T15:41:31;12.50;82.70
13328;DHT22;6733;51.044;3.746;2024-02-04T15:43:58;12.50;82.90
13328;DHT22;6733;51.044;3.746;2024-02-04T15:46:24;12.40;83.20
13328;DHT22;6733;51.044;3.746;2024-02-04T15:48:52;12.40;83.50
13328;DHT22;6733;51.044;3.746;2024-02-04T15:51:22;12.30;83.70
13328;DHT22;6733;51.044;3.746;2024-02-04T15:53:48;12.30;83.90
13328;DHT22;6733;51.044;3.746;2024-02-04T15:56:18;12.40;84.00
13328;DHT22;6733;51.044;3.746;2024-02-04T15:58:56;12.40;83.90
13328;DHT22;6733;51.044;3.746;2024-02-04T16:01:29;12.40;83.80
13328;DHT22;6733;51.044;3.746;2024-02-04T16:03:59;12.50;83.90
13328;DHT22;6733;51.044;3.746;2024-02-04T16:06:25;12.50;83.60